sensor_id;sensor_type;location;lat;lon;timestamp;P1;durP1;ratioP1;P2;durP2;ratioP2
68923;SDS011;55961;52.156;20.942;2023-02-15T00:00:22;49.22;;;19.08;;
68923;SDS011;55961;52.156;20.942;2023-02-15T00:03:08;52.67;;;21.20;;
68923;SDS011;55961;52.156;20.942;2023-02-15T00:05:34;53.17;;;20.13;;
68923;SDS011;55961;52.156;20.942;2023-02-15T00:08:00;47.58;;;18.92;;
68923;SDS011;55961;52.156;20.942;2023-02-15T00:10:26;47.72;;;19.73;;
68923;SDS011;55961;52.156;20.942;2023-02-15T00:12:52;47.10;;;18.27;;
68923;SDS011;55961;52.156;20.942;2023-02-15T00:15:18;48.42;;;19.05;;
68923;SDS011;55961;52.156;20.942;2023-02-15T00:17:44;49.83;;;18.80;;
68923;SDS011;55961;52.156;20.942;2023-02-15T00:20:10;48.67;;;20.10;;
68923;SDS011;55961;52.156;20.942;2023-02-15T00:22:36;48.93;;;19.93;;
68923;SDS011;55961;52.156;20.942;2023-02-15T00:25:02;46.55;;;19.40;;
68923;SDS011;55961;52.156;20.942;2023-02-15T00:27:28;66.32;;;26.15;;
68923;SDS011;55961;52.156;20.942;2023-02-15T00:29:55;53.15;;;21.70;;
68923;SDS011;55961;52.156;20.942;2023-02-15T00:32:20;53.20;;;21.03;;
68923;SDS011;55961;52.156;20.942;2023-02-15T00:34:47;50.47;;;19.45;;
68923;SDS011;55961;52.156;20.942;2023-02-15T00:37:12;45.08;;;18.40;;
68923;SDS011;55961;52.156;20.942;2023-02-15T00:39:38;48.57;;;20.23;;
68923;SDS011;55961;52.156;20.942;2023-02-15T00:42:04;50.70;;;20.53;;
68923;SDS011;55961;52.156;20.942;2023-02-15T00:44:30;50.65;;;19.20;;
68923;SDS011;55961;52.156;20.942;2023-02-15T00:46:56;47.30;;;19.00;;
68923;SDS011;55961;52.156;20.942;2023-02-15T00:49:22;47.17;;;19.30;;
68923;SDS011;55961;52.156;20.942;2023-02-15T00:51:48;46.25;;;18.48;;
68923;SDS011;55961;52.156;20.942;2023-02-15T00:54:14;53.70;;;20.63;;
68923;SDS011;55961;52.156;20.942;2023-02-15T00:56:39;48.45;;;19.45;;
68923;SDS011;55961;52.156;20.942;2023-02-15T00:59:05;48.72;;;20.27;;
68923;SDS011;55961;52.156;20.942;2023-02-15T01:01:31;50.10;;;20.33;;
68923;SDS011;55961;52.156;20.942;2023-02-15T01:03:57;45.97;;;18.83;;
68923;SDS011;55961;52.156;20.942;2023-02-15T01:06:23;55.20;;;18.35;;
68923;SDS011;55961;52.156;20.942;2023-02-15T01:08:49;52.63;;;21.77;;
68923;SDS011;55961;52.156;20.942;2023-02-15T01:11:16;48.50;;;20.38;;
68923;SDS011;55961;52.156;20.942;2023-02-15T01:13:54;46.40;;;18.67;;
68923;SDS011;55961;52.156;20.942;2023-02-15T01:16:22;48.33;;;20.17;;
68923;SDS011;55961;52.156;20.942;2023-02-15T01:18:49;53.20;;;19.23;;
68923;SDS011;55961;52.156;20.942;2023-02-15T01:21:16;44.08;;;19.08;;
68923;SDS011;55961;52.156;20.942;2023-02-15T01:23:44;50.25;;;19.65;;
68923;SDS011;55961;52.156;20.942;2023-02-15T01:26:10;50.92;;;19.35;;
68923;SDS011;55961;52.156;20.942;2023-02-15T01:28:37;46.53;;;18.88;;
68923;SDS011;55961;52.156;20.942;2023-02-15T01:31:10;54.93;;;22.97;;
68923;SDS011;55961;52.156;20.942;2023-02-15T01:33:38;48.53;;;18.80;;
68923;SDS011;55961;52.156;20.942;2023-02-15T01:36:04;53.58;;;19.52;;
68923;SDS011;55961;52.156;20.942;2023-02-15T01:38:30;46.10;;;18.23;;
68923;SDS011;55961;52.156;20.942;2023-02-15T01:40:56;46.35;;;20.00;;
68923;SDS011;55961;52.156;20.942;2023-02-15T01:43:43;45.90;;;19.13;;
68923;SDS011;55961;52.156;20.942;2023-02-15T01:46:11;48.33;;;19.35;;
68923;SDS011;55961;52.156;20.942;2023-02-15T01:48:42;46.33;;;19.00;;
68923;SDS011;55961;52.156;20.942;2023-02-15T01:51:11;44.13;;;17.67;;
68923;SDS011;55961;52.156;20.942;2023-02-15T01:53:39;51.55;;;20.15;;
68923;SDS011;55961;52.156;20.942;2023-02-15T01:56:20;49.67;;;19.80;;
68923;SDS011;55961;52.156;20.942;2023-02-15T01:58:50;46.20;;;18.80;;
68923;SDS011;55961;52.156;20.942;2023-02-15T02:01:18;50.65;;;19.65;;
68923;SDS011;55961;52.156;20.942;2023-02-15T02:04:29;47.60;;;20.33;;
68923;SDS011;55961;52.156;20.942;2023-02-15T02:06:48;50.13;;;19.98;;
68923;SDS011;55961;52.156;20.942;2023-02-15T02:09:15;46.87;;;19.37;;
68923;SDS011;55961;52.156;20.942;2023-02-15T02:11:41;49.70;;;19.15;;
68923;SDS011;55961;52.156;20.942;2023-02-15T02:14:11;48.03;;;18.60;;
68923;SDS011;55961;52.156;20.942;2023-02-15T02:16:40;50.22;;;19.15;;
68923;SDS011;55961;52.156;20.942;2023-02-15T02:36:15;46.97;;;19.97;;
68923;SDS011;55961;52.156;20.942;2023-02-15T02:41:42;48.72;;;20.20;;
68923;SDS011;55961;52.156;20.942;2023-02-15T02:44:21;48.38;;;19.77;;
68923;SDS011;55961;52.156;20.942;2023-02-15T02:49:40;49.93;;;21.07;;
68923;SDS011;55961;52.156;20.942;2023-02-15T02:55:01;53.58;;;20.98;;
68923;SDS011;55961;52.156;20.942;2023-02-15T02:57:30;51.53;;;21.10;;
68923;SDS011;55961;52.156;20.942;2023-02-15T02:59:57;50.88;;;21.00;;
68923;SDS011;55961;52.156;20.942;2023-02-15T03:02:29;47.57;;;19.53;;
68923;SDS011;55961;52.156;20.942;2023-02-15T03:05:05;49.38;;;19.83;;
68923;SDS011;55961;52.156;20.942;2023-02-15T03:07:36;46.25;;;19.92;;
68923;SDS011;55961;52.156;20.942;2023-02-15T03:10:04;48.67;;;20.65;;
68923;SDS011;55961;52.156;20.942;2023-02-15T03:12:33;46.92;;;19.20;;
68923;SDS011;55961;52.156;20.942;2023-02-15T03:17:41;45.58;;;17.55;;
68923;SDS011;55961;52.156;20.942;2023-02-15T03:20:18;45.15;;;18.23;;
68923;SDS011;55961;52.156;20.942;2023-02-15T03:22:53;46.28;;;17.83;;
68923;SDS011;55961;52.156;20.942;2023-02-15T03:28:01;48.97;;;19.20;;
68923;SDS011;55961;52.156;20.942;2023-02-15T03:30:31;45.50;;;18.30;;
68923;SDS011;55961;52.156;20.942;2023-02-15T03:32:59;47.78;;;18.45;;
68923;SDS011;55961;52.156;20.942;2023-02-15T03:35:31;48.47;;;20.15;;
68923;SDS011;55961;52.156;20.942;2023-02-15T03:38:03;42.63;;;17.70;;
68923;SDS011;55961;52.156;20.942;2023-02-15T03:40:40;48.17;;;17.70;;
68923;SDS011;55961;52.156;20.942;2023-02-15T03:43:30;42.85;;;16.77;;
68923;SDS011;55961;52.156;20.942;2023-02-15T03:48:51;44.90;;;17.67;;
68923;SDS011;55961;52.156;20.942;2023-02-15T03:51:21;47.22;;;17.92;;
68923;SDS011;55961;52.156;20.942;2023-02-15T03:54:15;47.73;;;17.90;;
68923;SDS011;55961;52.156;20.942;2023-02-15T03:57:15;32.80;;;13.45;;
68923;SDS011;55961;52.156;20.942;2023-02-15T04:05:41;33.10;;;12.68;;
68923;SDS011;55961;52.156;20.942;2023-02-15T04:08:08;31.17;;;11.87;;
68923;SDS011;55961;52.156;20.942;2023-02-15T04:10:34;33.35;;;14.40;;
68923;SDS011;55961;52.156;20.942;2023-02-15T04:13:24;23.63;;;10.82;;
68923;SDS011;55961;52.156;20.942;2023-02-15T04:15:56;29.98;;;11.75;;
68923;SDS011;55961;52.156;20.942;2023-02-15T04:18:46;29.88;;;13.68;;
68923;SDS011;55961;52.156;20.942;2023-02-15T04:21:31;35.80;;;13.47;;
68923;SDS011;55961;52.156;20.942;2023-02-15T04:24:15;33.00;;;14.25;;
68923;SDS011;55961;52.156;20.942;2023-02-15T04:27:00;34.10;;;14.15;;
68923;SDS011;55961;52.156;20.942;2023-02-15T04:29:27;36.47;;;15.95;;
68923;SDS011;55961;52.156;20.942;2023-02-15T04:31:54;37.70;;;15.80;;
68923;SDS011;55961;52.156;20.942;2023-02-15T04:34:22;34.17;;;14.43;;
68923;SDS011;55961;52.156;20.942;2023-02-15T04:36:48;34.67;;;12.85;;
68923;SDS011;55961;52.156;20.942;2023-02-15T04:39:15;30.50;;;12.73;;
68923;SDS011;55961;52.156;20.942;2023-02-15T04:41:42;32.17;;;14.00;;
68923;SDS011;55961;52.156;20.942;2023-02-15T04:44:08;30.58;;;14.55;;
68923;SDS011;55961;52.156;20.942;2023-02-15T04:46:35;33.17;;;15.73;;
68923;SDS011;55961;52.156;20.942;2023-02-15T04:49:00;36.50;;;14.23;;
68923;SDS011;55961;52.156;20.942;2023-02-15T04:51:27;34.17;;;15.15;;
68923;SDS011;55961;52.156;20.942;2023-02-15T04:53:52;30.33;;;13.77;;
68923;SDS011;55961;52.156;20.942;2023-02-15T04:56:19;33.47;;;15.40;;
68923;SDS011;55961;52.156;20.942;2023-02-15T04:58:45;32.53;;;14.35;;
68923;SDS011;55961;52.156;20.942;2023-02-15T05:01:12;32.58;;;14.45;;
68923;SDS011;55961;52.156;20.942;2023-02-15T05:03:38;45.72;;;15.45;;
68923;SDS011;55961;52.156;20.942;2023-02-15T05:06:04;50.73;;;18.50;;
68923;SDS011;55961;52.156;20.942;2023-02-15T05:08:30;41.78;;;15.43;;
68923;SDS011;55961;52.156;20.942;2023-02-15T05:10:56;35.60;;;14.98;;
68923;SDS011;55961;52.156;20.942;2023-02-15T05:13:22;32.30;;;13.63;;
68923;SDS011;55961;52.156;20.942;2023-02-15T05:15:49;31.73;;;15.30;;
68923;SDS011;55961;52.156;20.942;2023-02-15T05:18:16;32.93;;;14.67;;
68923;SDS011;55961;52.156;20.942;2023-02-15T05:20:44;34.88;;;15.38;;
68923;SDS011;55961;52.156;20.942;2023-02-15T05:23:10;36.15;;;16.35;;
68923;SDS011;55961;52.156;20.942;2023-02-15T05:25:36;33.15;;;14.93;;
68923;SDS011;55961;52.156;20.942;2023-02-15T05:28:21;44.03;;;17.92;;
68923;SDS011;55961;52.156;20.942;2023-02-15T05:30:49;35.27;;;14.90;;
68923;SDS011;55961;52.156;20.942;2023-02-15T05:33:16;32.55;;;13.98;;
68923;SDS011;55961;52.156;20.942;2023-02-15T05:35:43;33.13;;;13.77;;
68923;SDS011;55961;52.156;20.942;2023-02-15T05:38:09;30.75;;;13.57;;
68923;SDS011;55961;52.156;20.942;2023-02-15T05:40:35;32.88;;;14.15;;
68923;SDS011;55961;52.156;20.942;2023-02-15T05:43:00;40.40;;;17.27;;
68923;SDS011;55961;52.156;20.942;2023-02-15T05:45:26;51.20;;;20.45;;
68923;SDS011;55961;52.156;20.942;2023-02-15T05:47:52;33.85;;;14.35;;
68923;SDS011;55961;52.156;20.942;2023-02-15T05:50:18;38.80;;;15.53;;
68923;SDS011;55961;52.156;20.942;2023-02-15T05:52:44;43.05;;;17.73;;
68923;SDS011;55961;52.156;20.942;2023-02-15T05:55:10;38.25;;;16.88;;
68923;SDS011;55961;52.156;20.942;2023-02-15T05:57:37;45.88;;;18.88;;
68923;SDS011;55961;52.156;20.942;2023-02-15T06:00:03;50.60;;;20.83;;
68923;SDS011;55961;52.156;20.942;2023-02-15T06:02:36;44.45;;;20.98;;
68923;SDS011;55961;52.156;20.942;2023-02-15T06:05:03;36.65;;;15.57;;
68923;SDS011;55961;52.156;20.942;2023-02-15T06:07:30;43.63;;;17.67;;
68923;SDS011;55961;52.156;20.942;2023-02-15T06:09:56;35.25;;;13.73;;
68923;SDS011;55961;52.156;20.942;2023-02-15T06:12:22;27.53;;;11.47;;
68923;SDS011;55961;52.156;20.942;2023-02-15T06:14:48;34.95;;;14.73;;
68923;SDS011;55961;52.156;20.942;2023-02-15T06:17:13;32.80;;;14.07;;
68923;SDS011;55961;52.156;20.942;2023-02-15T06:19:39;31.67;;;13.60;;
68923;SDS011;55961;52.156;20.942;2023-02-15T06:22:05;31.52;;;12.82;;
68923;SDS011;55961;52.156;20.942;2023-02-15T06:24:32;33.10;;;13.82;;
68923;SDS011;55961;52.156;20.942;2023-02-15T06:26:57;34.27;;;13.90;;
68923;SDS011;55961;52.156;20.942;2023-02-15T06:29:23;26.92;;;11.23;;
68923;SDS011;55961;52.156;20.942;2023-02-15T06:31:49;35.20;;;14.18;;
68923;SDS011;55961;52.156;20.942;2023-02-15T06:34:15;37.45;;;15.43;;
68923;SDS011;55961;52.156;20.942;2023-02-15T06:36:41;36.73;;;15.40;;
68923;SDS011;55961;52.156;20.942;2023-02-15T06:39:07;41.85;;;17.42;;
68923;SDS011;55961;52.156;20.942;2023-02-15T06:41:33;30.73;;;13.43;;
68923;SDS011;55961;52.156;20.942;2023-02-15T06:43:59;32.13;;;13.10;;
68923;SDS011;55961;52.156;20.942;2023-02-15T06:46:25;31.77;;;12.93;;
68923;SDS011;55961;52.156;20.942;2023-02-15T06:48:51;33.85;;;14.57;;
68923;SDS011;55961;52.156;20.942;2023-02-15T06:51:17;36.97;;;13.57;;
68923;SDS011;55961;52.156;20.942;2023-02-15T06:53:43;36.55;;;14.45;;
68923;SDS011;55961;52.156;20.942;2023-02-15T06:56:09;33.30;;;13.98;;
68923;SDS011;55961;52.156;20.942;2023-02-15T06:58:37;36.30;;;13.98;;
68923;SDS011;55961;52.156;20.942;2023-02-15T07:01:07;34.03;;;13.33;;
68923;SDS011;55961;52.156;20.942;2023-02-15T07:03:34;47.55;;;17.02;;
68923;SDS011;55961;52.156;20.942;2023-02-15T07:06:01;50.53;;;21.45;;
68923;SDS011;55961;52.156;20.942;2023-02-15T07:08:28;39.92;;;16.83;;
68923;SDS011;55961;52.156;20.942;2023-02-15T07:10:55;38.40;;;16.15;;
68923;SDS011;55961;52.156;20.942;2023-02-15T07:13:44;41.83;;;15.57;;
68923;SDS011;55961;52.156;20.942;2023-02-15T07:16:10;46.65;;;23.42;;
68923;SDS011;55961;52.156;20.942;2023-02-15T07:18:37;38.63;;;16.75;;
68923;SDS011;55961;52.156;20.942;2023-02-15T07:21:03;49.65;;;21.63;;
68923;SDS011;55961;52.156;20.942;2023-02-15T07:23:36;46.55;;;22.30;;
68923;SDS011;55961;52.156;20.942;2023-02-15T07:26:03;40.40;;;17.47;;
68923;SDS011;55961;52.156;20.942;2023-02-15T07:28:32;36.15;;;12.20;;
68923;SDS011;55961;52.156;20.942;2023-02-15T07:31:00;27.55;;;10.75;;
68923;SDS011;55961;52.156;20.942;2023-02-15T07:33:29;28.23;;;11.43;;
68923;SDS011;55961;52.156;20.942;2023-02-15T07:35:56;29.20;;;10.50;;
68923;SDS011;55961;52.156;20.942;2023-02-15T07:38:34;33.60;;;15.03;;
68923;SDS011;55961;52.156;20.942;2023-02-15T07:41:02;28.73;;;11.73;;
68923;SDS011;55961;52.156;20.942;2023-02-15T07:43:30;27.88;;;10.93;;
68923;SDS011;55961;52.156;20.942;2023-02-15T07:46:02;24.33;;;9.88;;
68923;SDS011;55961;52.156;20.942;2023-02-15T07:48:29;26.80;;;11.77;;
68923;SDS011;55961;52.156;20.942;2023-02-15T07:50:59;24.07;;;8.97;;
68923;SDS011;55961;52.156;20.942;2023-02-15T07:53:26;22.58;;;8.98;;
68923;SDS011;55961;52.156;20.942;2023-02-15T07:55:52;20.95;;;8.48;;
68923;SDS011;55961;52.156;20.942;2023-02-15T07:58:18;30.10;;;12.27;;
68923;SDS011;55961;52.156;20.942;2023-02-15T08:00:44;43.35;;;17.27;;
68923;SDS011;55961;52.156;20.942;2023-02-15T08:03:23;23.87;;;8.83;;
68923;SDS011;55961;52.156;20.942;2023-02-15T08:05:54;19.50;;;7.95;;
68923;SDS011;55961;52.156;20.942;2023-02-15T08:08:24;22.77;;;8.07;;
68923;SDS011;55961;52.156;20.942;2023-02-15T08:11:00;22.95;;;8.93;;
68923;SDS011;55961;52.156;20.942;2023-02-15T08:13:48;19.92;;;7.43;;
68923;SDS011;55961;52.156;20.942;2023-02-15T08:16:41;17.50;;;7.10;;
68923;SDS011;55961;52.156;20.942;2023-02-15T08:21:34;29.88;;;11.35;;
68923;SDS011;55961;52.156;20.942;2023-02-15T08:24:01;23.85;;;9.45;;
68923;SDS011;55961;52.156;20.942;2023-02-15T08:26:28;31.33;;;10.27;;
68923;SDS011;55961;52.156;20.942;2023-02-15T08:28:55;44.80;;;17.23;;
68923;SDS011;55961;52.156;20.942;2023-02-15T08:31:22;37.60;;;16.13;;
68923;SDS011;55961;52.156;20.942;2023-02-15T08:33:49;33.58;;;13.27;;
68923;SDS011;55961;52.156;20.942;2023-02-15T08:36:20;33.95;;;12.02;;
68923;SDS011;55961;52.156;20.942;2023-02-15T08:38:48;32.72;;;13.32;;
68923;SDS011;55961;52.156;20.942;2023-02-15T08:41:18;25.53;;;9.73;;
68923;SDS011;55961;52.156;20.942;2023-02-15T08:43:50;29.90;;;12.57;;
68923;SDS011;55961;52.156;20.942;2023-02-15T08:46:18;32.55;;;13.07;;
68923;SDS011;55961;52.156;20.942;2023-02-15T08:48:46;38.47;;;16.50;;
68923;SDS011;55961;52.156;20.942;2023-02-15T08:51:16;34.47;;;12.45;;
68923;SDS011;55961;52.156;20.942;2023-02-15T08:53:53;37.43;;;13.57;;
68923;SDS011;55961;52.156;20.942;2023-02-15T08:56:25;31.02;;;11.80;;
68923;SDS011;55961;52.156;20.942;2023-02-15T08:58:53;32.15;;;11.25;;
68923;SDS011;55961;52.156;20.942;2023-02-15T09:01:23;33.08;;;11.23;;
68923;SDS011;55961;52.156;20.942;2023-02-15T09:03:51;34.33;;;13.13;;
68923;SDS011;55961;52.156;20.942;2023-02-15T09:06:21;25.57;;;10.03;;
68923;SDS011;55961;52.156;20.942;2023-02-15T09:08:48;26.35;;;9.90;;
68923;SDS011;55961;52.156;20.942;2023-02-15T09:11:16;36.70;;;13.85;;
68923;SDS011;55961;52.156;20.942;2023-02-15T09:13:48;30.67;;;11.40;;
68923;SDS011;55961;52.156;20.942;2023-02-15T09:16:16;28.25;;;10.48;;
68923;SDS011;55961;52.156;20.942;2023-02-15T09:18:42;31.00;;;11.07;;
68923;SDS011;55961;52.156;20.942;2023-02-15T09:21:09;31.60;;;11.05;;
68923;SDS011;55961;52.156;20.942;2023-02-15T09:23:39;27.90;;;10.73;;
68923;SDS011;55961;52.156;20.942;2023-02-15T09:26:06;34.53;;;10.13;;
68923;SDS011;55961;52.156;20.942;2023-02-15T09:28:37;29.05;;;11.43;;
68923;SDS011;55961;52.156;20.942;2023-02-15T09:31:04;30.70;;;10.63;;
68923;SDS011;55961;52.156;20.942;2023-02-15T09:33:35;31.27;;;12.00;;
68923;SDS011;55961;52.156;20.942;2023-02-15T09:36:03;26.52;;;9.43;;
68923;SDS011;55961;52.156;20.942;2023-02-15T09:38:30;30.98;;;12.20;;
68923;SDS011;55961;52.156;20.942;2023-02-15T10:03:31;24.65;;;9.95;;
68923;SDS011;55961;52.156;20.942;2023-02-15T10:11:51;24.33;;;8.77;;
68923;SDS011;55961;52.156;20.942;2023-02-15T10:17:48;26.95;;;9.65;;
68923;SDS011;55961;52.156;20.942;2023-02-15T10:20:38;35.47;;;14.30;;
68923;SDS011;55961;52.156;20.942;2023-02-15T10:31:24;26.98;;;9.20;;
68923;SDS011;55961;52.156;20.942;2023-02-15T10:34:18;24.23;;;9.63;;
68923;SDS011;55961;52.156;20.942;2023-02-15T10:47:54;28.37;;;11.30;;
68923;SDS011;55961;52.156;20.942;2023-02-15T10:56:18;27.77;;;10.60;;
68923;SDS011;55961;52.156;20.942;2023-02-15T11:07:14;29.27;;;12.45;;
68923;SDS011;55961;52.156;20.942;2023-02-15T11:09:48;22.88;;;7.63;;
68923;SDS011;55961;52.156;20.942;2023-02-15T11:12:21;30.13;;;11.13;;
68923;SDS011;55961;52.156;20.942;2023-02-15T11:18:02;40.38;;;14.88;;
68923;SDS011;55961;52.156;20.942;2023-02-15T11:23:51;41.85;;;14.75;;
68923;SDS011;55961;52.156;20.942;2023-02-15T11:28:55;39.30;;;12.88;;
68923;SDS011;55961;52.156;20.942;2023-02-15T11:31:36;38.97;;;13.90;;
68923;SDS011;55961;52.156;20.942;2023-02-15T11:34:29;40.08;;;14.98;;
68923;SDS011;55961;52.156;20.942;2023-02-15T11:37:13;36.60;;;14.35;;
68923;SDS011;55961;52.156;20.942;2023-02-15T11:39:43;40.67;;;13.57;;
68923;SDS011;55961;52.156;20.942;2023-02-15T11:42:11;38.38;;;14.80;;
68923;SDS011;55961;52.156;20.942;2023-02-15T11:44:49;42.85;;;15.63;;
68923;SDS011;55961;52.156;20.942;2023-02-15T11:47:26;47.22;;;16.85;;
68923;SDS011;55961;52.156;20.942;2023-02-15T11:49:52;41.30;;;15.38;;
68923;SDS011;55961;52.156;20.942;2023-02-15T11:52:18;40.67;;;17.03;;
68923;SDS011;55961;52.156;20.942;2023-02-15T11:54:46;32.20;;;12.95;;
68923;SDS011;55961;52.156;20.942;2023-02-15T11:59:56;32.55;;;11.15;;
68923;SDS011;55961;52.156;20.942;2023-02-15T12:02:27;35.80;;;14.47;;
68923;SDS011;55961;52.156;20.942;2023-02-15T12:04:56;43.05;;;14.82;;
68923;SDS011;55961;52.156;20.942;2023-02-15T12:07:36;43.45;;;14.90;;
68923;SDS011;55961;52.156;20.942;2023-02-15T12:13:11;48.00;;;16.33;;
68923;SDS011;55961;52.156;20.942;2023-02-15T12:15:43;66.00;;;24.77;;
68923;SDS011;55961;52.156;20.942;2023-02-15T12:18:19;48.33;;;19.10;;
68923;SDS011;55961;52.156;20.942;2023-02-15T12:21:15;42.55;;;16.30;;
68923;SDS011;55961;52.156;20.942;2023-02-15T12:23:56;44.65;;;16.85;;
68923;SDS011;55961;52.156;20.942;2023-02-15T12:26:29;46.38;;;18.00;;
68923;SDS011;55961;52.156;20.942;2023-02-15T12:29:01;56.03;;;20.33;;
68923;SDS011;55961;52.156;20.942;2023-02-15T12:31:38;70.18;;;23.15;;
68923;SDS011;55961;52.156;20.942;2023-02-15T12:37:18;43.38;;;16.50;;
68923;SDS011;55961;52.156;20.942;2023-02-15T12:39:52;45.72;;;17.45;;
68923;SDS011;55961;52.156;20.942;2023-02-15T12:42:20;50.67;;;17.37;;
68923;SDS011;55961;52.156;20.942;2023-02-15T12:45:19;42.58;;;18.42;;
68923;SDS011;55961;52.156;20.942;2023-02-15T12:48:12;46.55;;;16.83;;
68923;SDS011;55961;52.156;20.942;2023-02-15T12:50:44;44.72;;;17.20;;
68923;SDS011;55961;52.156;20.942;2023-02-15T12:53:22;46.45;;;15.60;;
68923;SDS011;55961;52.156;20.942;2023-02-15T12:55:59;43.53;;;17.77;;
68923;SDS011;55961;52.156;20.942;2023-02-15T12:58:37;46.67;;;17.70;;
68923;SDS011;55961;52.156;20.942;2023-02-15T13:01:17;48.83;;;18.27;;
68923;SDS011;55961;52.156;20.942;2023-02-15T13:06:21;58.80;;;23.50;;
68923;SDS011;55961;52.156;20.942;2023-02-15T13:08:52;50.17;;;18.27;;
68923;SDS011;55961;52.156;20.942;2023-02-15T13:11:27;41.15;;;15.45;;
68923;SDS011;55961;52.156;20.942;2023-02-15T13:14:03;46.00;;;17.27;;
68923;SDS011;55961;52.156;20.942;2023-02-15T13:16:48;45.03;;;15.98;;
68923;SDS011;55961;52.156;20.942;2023-02-15T13:19:16;41.72;;;16.05;;
68923;SDS011;55961;52.156;20.942;2023-02-15T13:21:49;44.87;;;17.10;;
68923;SDS011;55961;52.156;20.942;2023-02-15T13:26:48;53.65;;;20.17;;
68923;SDS011;55961;52.156;20.942;2023-02-15T13:29:17;63.72;;;25.50;;
68923;SDS011;55961;52.156;20.942;2023-02-15T13:31:49;44.90;;;16.50;;
68923;SDS011;55961;52.156;20.942;2023-02-15T13:34:20;50.73;;;19.27;;
68923;SDS011;55961;52.156;20.942;2023-02-15T13:37:01;41.75;;;16.90;;
68923;SDS011;55961;52.156;20.942;2023-02-15T13:53:37;46.60;;;16.95;;
68923;SDS011;55961;52.156;20.942;2023-02-15T13:56:33;47.08;;;17.08;;
68923;SDS011;55961;52.156;20.942;2023-02-15T14:18:41;44.08;;;16.85;;
68923;SDS011;55961;52.156;20.942;2023-02-15T14:21:34;46.30;;;17.52;;
68923;SDS011;55961;52.156;20.942;2023-02-15T14:24:28;49.22;;;18.25;;
68923;SDS011;55961;52.156;20.942;2023-02-15T14:27:10;57.80;;;22.80;;
68923;SDS011;55961;52.156;20.942;2023-02-15T14:32:17;54.20;;;20.23;;
68923;SDS011;55961;52.156;20.942;2023-02-15T14:35:08;52.78;;;19.55;;
68923;SDS011;55961;52.156;20.942;2023-02-15T14:49:29;63.35;;;24.17;;
68923;SDS011;55961;52.156;20.942;2023-02-15T14:51:59;58.78;;;21.35;;
68923;SDS011;55961;52.156;20.942;2023-02-15T15:02:13;43.50;;;16.30;;
68923;SDS011;55961;52.156;20.942;2023-02-15T15:18:06;39.83;;;14.52;;
68923;SDS011;55961;52.156;20.942;2023-02-15T15:20:42;45.33;;;17.17;;
68923;SDS011;55961;52.156;20.942;2023-02-15T15:31:08;52.20;;;22.15;;
68923;SDS011;55961;52.156;20.942;2023-02-15T15:50:24;43.83;;;16.57;;
68923;SDS011;55961;52.156;20.942;2023-02-15T15:52:54;42.22;;;15.02;;
68923;SDS011;55961;52.156;20.942;2023-02-15T15:55:27;49.25;;;18.77;;
68923;SDS011;55961;52.156;20.942;2023-02-15T15:57:59;43.22;;;17.20;;
68923;SDS011;55961;52.156;20.942;2023-02-15T16:00:43;46.13;;;16.88;;
68923;SDS011;55961;52.156;20.942;2023-02-15T16:03:25;46.23;;;18.70;;
68923;SDS011;55961;52.156;20.942;2023-02-15T16:05:52;45.50;;;18.05;;
68923;SDS011;55961;52.156;20.942;2023-02-15T16:08:25;48.13;;;19.10;;
68923;SDS011;55961;52.156;20.942;2023-02-15T16:10:55;47.30;;;18.98;;
68923;SDS011;55961;52.156;20.942;2023-02-15T16:13:22;48.20;;;20.30;;
68923;SDS011;55961;52.156;20.942;2023-02-15T16:15:50;44.63;;;18.10;;
68923;SDS011;55961;52.156;20.942;2023-02-15T16:18:19;44.30;;;17.65;;
68923;SDS011;55961;52.156;20.942;2023-02-15T16:20:51;40.35;;;17.05;;
68923;SDS011;55961;52.156;20.942;2023-02-15T16:28:24;46.50;;;17.27;;
68923;SDS011;55961;52.156;20.942;2023-02-15T16:31:06;42.55;;;16.85;;
68923;SDS011;55961;52.156;20.942;2023-02-15T16:33:37;46.42;;;19.05;;
68923;SDS011;55961;52.156;20.942;2023-02-15T16:36:05;49.20;;;18.75;;
68923;SDS011;55961;52.156;20.942;2023-02-15T16:41:10;51.70;;;23.17;;
68923;SDS011;55961;52.156;20.942;2023-02-15T16:43:38;41.78;;;16.83;;
68923;SDS011;55961;52.156;20.942;2023-02-15T16:46:12;61.53;;;28.30;;
68923;SDS011;55961;52.156;20.942;2023-02-15T16:48:43;55.65;;;22.60;;
68923;SDS011;55961;52.156;20.942;2023-02-15T16:51:18;48.55;;;19.23;;
68923;SDS011;55961;52.156;20.942;2023-02-15T16:53:47;45.50;;;17.90;;
68923;SDS011;55961;52.156;20.942;2023-02-15T16:56:15;44.63;;;18.15;;
68923;SDS011;55961;52.156;20.942;2023-02-15T16:58:58;41.75;;;17.48;;
68923;SDS011;55961;52.156;20.942;2023-02-15T17:01:26;40.47;;;17.15;;
68923;SDS011;55961;52.156;20.942;2023-02-15T17:06:57;47.30;;;19.03;;
68923;SDS011;55961;52.156;20.942;2023-02-15T17:09:31;56.83;;;22.30;;
68923;SDS011;55961;52.156;20.942;2023-02-15T17:11:59;49.45;;;21.15;;
68923;SDS011;55961;52.156;20.942;2023-02-15T17:14:28;53.42;;;21.48;;
68923;SDS011;55961;52.156;20.942;2023-02-15T17:17:05;62.10;;;25.67;;
68923;SDS011;55961;52.156;20.942;2023-02-15T17:19:44;55.03;;;21.87;;
68923;SDS011;55961;52.156;20.942;2023-02-15T17:22:21;74.00;;;27.02;;
68923;SDS011;55961;52.156;20.942;2023-02-15T17:24:50;60.95;;;24.70;;
68923;SDS011;55961;52.156;20.942;2023-02-15T17:27:25;61.33;;;25.40;;
68923;SDS011;55961;52.156;20.942;2023-02-15T17:29:56;58.42;;;26.10;;
68923;SDS011;55961;52.156;20.942;2023-02-15T17:32:26;62.33;;;25.67;;
68923;SDS011;55961;52.156;20.942;2023-02-15T17:37:26;50.85;;;21.25;;
68923;SDS011;55961;52.156;20.942;2023-02-15T17:40:16;48.00;;;18.83;;
68923;SDS011;55961;52.156;20.942;2023-02-15T17:42:42;48.10;;;18.80;;
68923;SDS011;55961;52.156;20.942;2023-02-15T17:45:08;46.07;;;18.90;;
68923;SDS011;55961;52.156;20.942;2023-02-15T17:47:34;41.25;;;17.92;;
68923;SDS011;55961;52.156;20.942;2023-02-15T17:50:01;42.20;;;16.53;;
68923;SDS011;55961;52.156;20.942;2023-02-15T17:52:28;45.28;;;18.00;;
68923;SDS011;55961;52.156;20.942;2023-02-15T17:54:55;51.38;;;20.83;;
68923;SDS011;55961;52.156;20.942;2023-02-15T17:57:41;55.97;;;22.65;;
68923;SDS011;55961;52.156;20.942;2023-02-15T18:00:07;68.10;;;26.73;;
68923;SDS011;55961;52.156;20.942;2023-02-15T18:02:57;69.97;;;29.92;;
68923;SDS011;55961;52.156;20.942;2023-02-15T18:05:41;55.35;;;22.50;;
68923;SDS011;55961;52.156;20.942;2023-02-15T18:08:27;50.65;;;19.83;;
68923;SDS011;55961;52.156;20.942;2023-02-15T18:11:12;52.88;;;21.67;;
68923;SDS011;55961;52.156;20.942;2023-02-15T18:13:57;56.07;;;22.73;;
68923;SDS011;55961;52.156;20.942;2023-02-15T18:16:26;63.05;;;26.85;;
68923;SDS011;55961;52.156;20.942;2023-02-15T18:18:55;54.80;;;21.40;;
68923;SDS011;55961;52.156;20.942;2023-02-15T18:21:22;55.17;;;22.15;;
68923;SDS011;55961;52.156;20.942;2023-02-15T18:23:49;38.58;;;16.92;;
68923;SDS011;55961;52.156;20.942;2023-02-15T18:26:20;49.60;;;20.97;;
68923;SDS011;55961;52.156;20.942;2023-02-15T18:28:48;46.75;;;19.45;;